BEL1 EBLG-EBLG

Flight info

Callsign BEL1
Flight time N/A
Altitude 3000
Route DCT
Aircraft A20N/M-V/N

Departure

Time 2026-05-05 12:20
Airport Liège Airport (EBLG)

Arrival

Time N/A
Airport Liège Airport (EBLG)
Time Latitude Longitude Altitude Speed Heading
2026-05-05 11:47 50.64260 5.45762 597 ft 0 kts 135°
2026-05-05 12:10 50.64261 5.45761 597 ft 0 kts 135°
2026-05-05 12:10 50.64267 5.45750 597 ft 2 kts 135°
2026-05-05 12:11 50.64283 5.45725 596 ft 4 kts 134°
2026-05-05 12:11 50.64307 5.45687 594 ft 5 kts 134°
2026-05-05 12:11 50.64337 5.45640 593 ft 0 kts 134°
2026-05-05 12:15 50.64321 5.45659 593 ft 3 kts 159°
2026-05-05 12:15 50.64298 5.45649 594 ft 6 kts 210°
2026-05-05 12:15 50.64240 5.45566 594 ft 15 kts 225°
2026-05-05 12:15 50.64147 5.45421 594 ft 20 kts 223°
2026-05-05 12:16 50.64048 5.45261 593 ft 20 kts 226°
2026-05-05 12:16 50.63947 5.45123 594 ft 16 kts 227°
2026-05-05 12:16 50.63875 5.44990 596 ft 15 kts 231°
2026-05-05 12:16 50.63800 5.44866 597 ft 15 kts 220°
2026-05-05 12:17 50.63717 5.44743 598 ft 18 kts 225°
2026-05-05 12:17 50.63612 5.44572 600 ft 24 kts 225°
2026-05-05 12:17 50.63496 5.44388 604 ft 22 kts 225°
2026-05-05 12:17 50.63390 5.44221 608 ft 22 kts 225°
2026-05-05 12:18 50.63274 5.44043 613 ft 22 kts 226°
2026-05-05 12:18 50.63195 5.43900 618 ft 6 kts 246°
2026-05-05 12:18 50.63193 5.43887 618 ft 1 kts 272°
2026-05-05 12:18 50.63211 5.43852 618 ft 5 kts 339°
2026-05-05 12:19 50.63263 5.43843 617 ft 9 kts
2026-05-05 12:19 50.63330 5.43827 616 ft 11 kts 321°
2026-05-05 12:19 50.63414 5.43900 613 ft 33 kts 43°
2026-05-05 12:19 50.63770 5.44455 597 ft 106 kts 45°
2026-05-05 12:20 50.64425 5.45485 721 ft 148 kts 43°
2026-05-05 12:20 50.65158 5.46638 1272 ft 153 kts 43°
2026-05-05 12:20 50.65894 5.47802 1964 ft 152 kts 44°
2026-05-05 12:20 50.66645 5.48978 2544 ft 158 kts 44°
2026-05-05 12:21 50.67466 5.50251 2884 ft 177 kts 44°
2026-05-05 12:21 50.68391 5.51670 3302 ft 194 kts 44°
2026-05-05 12:21 50.69523 5.52968 3691 ft 213 kts 11°
2026-05-05 12:21 50.71032 5.52691 4013 ft 241 kts 341°
2026-05-05 12:22 50.72589 5.51402 3996 ft 263 kts 319°
2026-05-05 12:22 50.73833 5.49254 3998 ft 266 kts 311°
2026-05-05 12:22 50.74944 5.46938 3984 ft 268 kts 296°
2026-05-05 12:22 50.75361 5.44092 3984 ft 270 kts 268°
2026-05-05 12:23 50.74882 5.41267 3988 ft 271 kts 239°
2026-05-05 12:23 50.73714 5.38907 3996 ft 271 kts 228°
2026-05-05 12:23 50.72469 5.36688 3991 ft 271 kts 227°
2026-05-05 12:23 50.71221 5.34478 3990 ft 271 kts 227°
2026-05-05 12:24 50.69953 5.32292 3988 ft 271 kts 225°
2026-05-05 12:24 50.68636 5.30188 3985 ft 271 kts 224°
2026-05-05 12:24 50.67286 5.28070 3986 ft 272 kts 224°
2026-05-05 12:24 50.65950 5.25970 3992 ft 272 kts 224°
2026-05-05 12:25 50.64614 5.23860 3988 ft 272 kts 224°
2026-05-05 12:25 50.63276 5.21739 3985 ft 272 kts 224°
2026-05-05 12:25 50.61953 5.19641 3984 ft 272 kts 224°
2026-05-05 12:25 50.60624 5.17535 3985 ft 272 kts 224°
2026-05-05 12:26 50.59296 5.15429 3986 ft 272 kts 225°
2026-05-05 12:26 50.57949 5.13296 3961 ft 272 kts 224°
2026-05-05 12:26 50.56460 5.11529 3758 ft 266 kts 199°
2026-05-05 12:26 50.54688 5.11260 3582 ft 253 kts 166°
2026-05-05 12:27 50.53142 5.12369 3399 ft 240 kts 137°
2026-05-05 12:27 50.51970 5.14196 3225 ft 232 kts 131°
2026-05-05 12:27 50.50877 5.15998 3045 ft 225 kts 131°
2026-05-05 12:27 50.49895 5.17843 2980 ft 218 kts 114°
2026-05-05 12:28 50.49535 5.20088 2981 ft 216 kts 86°
2026-05-05 12:28 50.49898 5.22377 2979 ft 216 kts 60°
2026-05-05 12:28 50.50797 5.24213 2978 ft 216 kts 44°
2026-05-05 12:28 50.51898 5.25795 2965 ft 206 kts 42°
2026-05-05 12:29 50.52914 5.27252 2950 ft 191 kts 44°
2026-05-05 12:29 50.53829 5.28643 2956 ft 180 kts 45°
2026-05-05 12:29 50.54720 5.30048 2948 ft 182 kts 45°
2026-05-05 12:29 50.55595 5.31446 2688 ft 180 kts 45°
2026-05-05 12:30 50.56472 5.32850 2442 ft 176 kts 45°
2026-05-05 12:30 50.57304 5.34178 2203 ft 169 kts 44°
2026-05-05 12:30 50.58102 5.35450 1953 ft 155 kts 44°
2026-05-05 12:30 50.58821 5.36596 1748 ft 140 kts 44°
2026-05-05 12:31 50.59481 5.37645 1535 ft 134 kts 44°
2026-05-05 12:31 50.60138 5.38705 1377 ft 134 kts 44°
2026-05-05 12:31 50.60784 5.39737 1253 ft 133 kts 44°
2026-05-05 12:31 50.61436 5.40792 1075 ft 137 kts 44°
2026-05-05 12:32 50.62123 5.41856 873 ft 138 kts 43°
2026-05-05 12:32 50.62774 5.42904 675 ft 132 kts 43°
2026-05-05 12:32 50.63372 5.43830 615 ft 102 kts 36°
2026-05-05 12:32 50.63844 5.44573 594 ft 91 kts 47°
2026-05-05 12:33 50.64420 5.45506 603 ft 145 kts 61°
2026-05-05 12:33 50.65020 5.46834 1127 ft 151 kts 47°
2026-05-05 12:33 50.65696 5.48002 1909 ft 145 kts 45°
2026-05-05 12:33 50.66378 5.49134 2546 ft 144 kts 46°
2026-05-05 12:34 50.66861 5.50551 2885 ft 160 kts 86°
2026-05-05 12:34 50.66407 5.52220 3209 ft 183 kts 137°
2026-05-05 12:34 50.65243 5.53209 3628 ft 201 kts 155°
2026-05-05 12:34 50.63885 5.54035 4068 ft 218 kts 156°
2026-05-05 12:35 50.62394 5.54983 4416 ft 242 kts 155°
2026-05-05 12:35 50.60809 5.56076 4918 ft 260 kts 154°
2026-05-05 12:35 50.59150 5.57280 5610 ft 269 kts 153°
2026-05-05 12:35 50.57464 5.58542 6481 ft 272 kts 153°
2026-05-05 12:36 50.55748 5.59848 7290 ft 277 kts 153°
2026-05-05 12:36 50.53981 5.61206 7771 ft 294 kts 153°
2026-05-05 12:36 50.52079 5.62676 8194 ft 313 kts 153°
2026-05-05 12:36 50.50080 5.64226 8587 ft 331 kts 153°
2026-05-05 12:37 50.47984 5.65848 8936 ft 349 kts 153°
2026-05-05 12:37 50.45743 5.67584 9243 ft 366 kts 153°
2026-05-05 12:37 50.43436 5.69370 9575 ft 381 kts 154°
2026-05-05 12:37 50.41036 5.71225 10185 ft 387 kts 154°
2026-05-05 12:38 50.38613 5.73095 10866 ft 390 kts 153°
2026-05-05 12:38 50.36185 5.74966 11502 ft 393 kts 153°
2026-05-05 12:38 50.33741 5.76850 12111 ft 397 kts 153°
2026-05-05 12:38 50.31245 5.78771 12711 ft 401 kts 153°
2026-05-05 12:39 50.28755 5.80686 13306 ft 405 kts 153°
2026-05-05 12:39 50.26225 5.82629 13699 ft 395 kts 153°
2026-05-05 12:39 50.23833 5.84451 13827 ft 385 kts 153°
2026-05-05 12:39 50.21460 5.86254 13842 ft 367 kts 153°
2026-05-05 12:40 50.19201 5.87972 13842 ft 362 kts 153°
2026-05-05 12:40 50.16956 5.89682 13837 ft 361 kts 153°
2026-05-05 12:40 50.14690 5.91409 13841 ft 361 kts 153°
2026-05-05 12:40 50.12450 5.93116 13828 ft 360 kts 153°
2026-05-05 12:41 50.10227 5.94808 13616 ft 359 kts 153°
2026-05-05 12:41 50.07974 5.96523 13310 ft 356 kts 153°
2026-05-05 12:41 50.05765 5.98202 12973 ft 355 kts 153°
2026-05-05 12:41 50.03576 5.99864 12551 ft 353 kts 153°
2026-05-05 12:42 50.01376 6.01533 12032 ft 352 kts 154°
2026-05-05 12:42 49.99193 6.03187 11516 ft 351 kts 154°
2026-05-05 12:42 49.97002 6.04846 10984 ft 350 kts 154°
2026-05-05 12:42 49.94810 6.06503 10464 ft 348 kts 154°
2026-05-05 12:43 49.92667 6.08123 10065 ft 342 kts 154°
2026-05-05 12:43 49.90548 6.09723 9901 ft 328 kts 154°
2026-05-05 12:43 49.88545 6.11233 9901 ft 311 kts 154°
2026-05-05 12:43 49.86675 6.12686 9892 ft 295 kts 149°
2026-05-05 12:44 49.85235 6.14812 9743 ft 286 kts 121°
2026-05-05 12:44 49.84451 6.17575 9441 ft 280 kts 110°
2026-05-05 12:44 49.83811 6.20415 8806 ft 279 kts 110°
2026-05-05 12:44 49.83140 6.23205 8126 ft 278 kts 112°
2026-05-05 12:45 49.82426 6.25936 7478 ft 275 kts 113°
2026-05-05 12:45 49.81687 6.28623 6826 ft 273 kts 114°
2026-05-05 12:45 49.80682 6.32190 5935 ft 269 kts 114°
2026-05-05 12:45 49.80192 6.33914 5510 ft 268 kts 114°
2026-05-05 12:46 49.79443 6.36545 4858 ft 266 kts 115°
2026-05-05 12:46 49.78589 6.39024 4249 ft 260 kts 132°
2026-05-05 12:46 49.77181 6.40658 3848 ft 249 kts 152°
2026-05-05 12:46 49.75674 6.41855 3660 ft 240 kts 154°
2026-05-05 12:47 49.74211 6.43008 3493 ft 232 kts 153°
2026-05-05 12:47 49.72819 6.44153 3316 ft 225 kts 153°
2026-05-05 12:47 49.71355 6.44832 3127 ft 216 kts 185°
2026-05-05 12:47 49.70053 6.43957 2995 ft 206 kts 228°
2026-05-05 12:48 49.69464 6.42041 2999 ft 191 kts 253°
2026-05-05 12:48 49.69176 6.40103 2993 ft 184 kts 252°
2026-05-05 12:48 49.68784 6.38240 2993 ft 184 kts 245°
2026-05-05 12:48 49.68260 6.36439 3016 ft 180 kts 242°
2026-05-05 12:49 49.67710 6.34768 2871 ft 171 kts 239°
2026-05-05 12:49 49.67140 6.33202 2623 ft 166 kts 237°
2026-05-05 12:49 49.66571 6.31693 2384 ft 158 kts 238°
2026-05-05 12:49 49.66045 6.30292 2202 ft 146 kts 238°
2026-05-05 12:50 49.65557 6.28986 2005 ft 139 kts 238°
2026-05-05 12:50 49.65076 6.27685 1820 ft 138 kts 237°
2026-05-05 12:50 49.64602 6.26381 1667 ft 139 kts 240°
2026-05-05 12:50 49.64138 6.25092 1433 ft 141 kts 236°
2026-05-05 12:51 49.63639 6.23810 1318 ft 140 kts 238°
2026-05-05 12:51 49.63163 6.22524 1204 ft 128 kts 238°
2026-05-05 12:51 49.62781 6.21542 1218 ft 81 kts 243°
2026-05-05 12:51 49.62649 6.21070 1226 ft 32 kts 266°
2026-05-05 12:52 49.62656 6.20790 1231 ft 20 kts 293°
2026-05-05 12:52 49.62744 6.20700 1233 ft 9 kts
2026-05-05 12:52 49.62769 6.20706 1233 ft 0 kts 28°
2026-05-05 12:52 49.62773 6.20714 1233 ft 1 kts 51°
2026-05-05 12:53 49.62780 6.20728 1234 ft 1 kts 51°
2026-05-05 12:53 49.62791 6.20749 1234 ft 4 kts 51°
2026-05-05 12:53 49.62814 6.20802 1234 ft 7 kts 63°
2026-05-05 12:53 49.62844 6.20895 1235 ft 11 kts 64°
2026-05-05 12:54 49.62938 6.21209 1232 ft 20 kts 64°
2026-05-05 12:54 49.63005 6.21420 1230 ft 24 kts 63°
2026-05-05 12:54 49.63080 6.21681 1224 ft 28 kts 60°
2026-05-05 12:55 49.63177 6.21970 1217 ft 32 kts 64°
2026-05-05 12:55 49.63263 6.22115 1215 ft 13 kts 337°
2026-05-05 12:55 49.63325 6.22028 1225 ft 10 kts 315°
2026-05-05 12:55 49.63354 6.21926 1231 ft 11 kts 267°
2026-05-05 12:56 49.63332 6.21825 1235 ft 8 kts 240°
2026-05-05 12:56 49.63342 6.21750 1235 ft 8 kts 350°
2026-05-05 12:56 49.63371 6.21736 1235 ft 0 kts 333°